RRR4205 EDDV-LKPR
Flight info
| Callsign | RRR4205 |
|---|---|
| Flight time | 0h 48m |
| Altitude | 31000 |
| Route | POVEL3H/09R POVEL Z94 GALMA Z21 DRN T620 LALUK DCT GOLOP |
| Aircraft | A400/H-SDE2E3FGHIJ4J5M1RWXY/LB1D1 |
Departure
| Time | 2026-05-06 09:34 |
|---|---|
| Airport | Hannover Airport (EDDV) |
Arrival
| Time | 2026-05-06 10:22 |
|---|---|
| Airport | Václav Havel Airport Prague (LKPR) |
| Time | Latitude | Longitude | Altitude | Speed | Heading |
|---|---|---|---|---|---|
| 2026-05-06 09:07 | 52.45875 | 9.68560 | 189 ft | 0 kts | 3° |
| 2026-05-06 09:26 | 52.45873 | 9.68560 | 201 ft | 2 kts | 3° |
| 2026-05-06 09:26 | 52.45847 | 9.68558 | 189 ft | 4 kts | 3° |
| 2026-05-06 09:26 | 52.45821 | 9.68555 | 206 ft | 4 kts | 355° |
| 2026-05-06 09:27 | 52.45797 | 9.68567 | 200 ft | 4 kts | 315° |
| 2026-05-06 09:27 | 52.45787 | 9.68596 | 193 ft | 1 kts | 272° |
| 2026-05-06 09:30 | 52.45788 | 9.68570 | 195 ft | 5 kts | 272° |
| 2026-05-06 09:31 | 52.45791 | 9.68480 | 191 ft | 10 kts | 272° |
| 2026-05-06 09:31 | 52.45778 | 9.68354 | 204 ft | 13 kts | 233° |
| 2026-05-06 09:31 | 52.45725 | 9.68298 | 205 ft | 14 kts | 208° |
| 2026-05-06 09:31 | 52.45652 | 9.68190 | 195 ft | 15 kts | 258° |
| 2026-05-06 09:32 | 52.45656 | 9.67938 | 197 ft | 18 kts | 273° |
| 2026-05-06 09:32 | 52.45655 | 9.67803 | 201 ft | 17 kts | 257° |
| 2026-05-06 09:32 | 52.45606 | 9.67710 | 208 ft | 0 kts | 202° |
| 2026-05-06 09:33 | 52.45587 | 9.67703 | 202 ft | 6 kts | 191° |
| 2026-05-06 09:33 | 52.45533 | 9.67697 | 202 ft | 10 kts | 176° |
| 2026-05-06 09:33 | 52.45495 | 9.67789 | 196 ft | 12 kts | 92° |
| 2026-05-06 09:34 | 52.45480 | 9.68328 | 197 ft | 94 kts | 92° |
| 2026-05-06 09:34 | 52.45441 | 9.69916 | 254 ft | 172 kts | 88° |
| 2026-05-06 09:34 | 52.45404 | 9.71970 | 933 ft | 180 kts | 90° |
| 2026-05-06 09:34 | 52.45368 | 9.73985 | 2070 ft | 174 kts | 91° |
| 2026-05-06 09:35 | 52.45300 | 9.76040 | 2959 ft | 186 kts | 93° |
| 2026-05-06 09:35 | 52.45225 | 9.78226 | 3843 ft | 199 kts | 93° |
| 2026-05-06 09:35 | 52.45150 | 9.80544 | 4845 ft | 208 kts | 93° |
| 2026-05-06 09:35 | 52.45076 | 9.82935 | 5981 ft | 212 kts | 94° |
| 2026-05-06 09:36 | 52.45002 | 9.85372 | 7102 ft | 217 kts | 94° |
| 2026-05-06 09:36 | 52.44926 | 9.87882 | 8257 ft | 224 kts | 95° |
| 2026-05-06 09:36 | 52.44848 | 9.90473 | 9463 ft | 232 kts | 97° |
| 2026-05-06 09:36 | 52.44644 | 9.93124 | 10573 ft | 237 kts | 107° |
| 2026-05-06 09:37 | 52.44055 | 9.95709 | 11459 ft | 254 kts | 118° |
| 2026-05-06 09:37 | 52.43159 | 9.98406 | 11866 ft | 285 kts | 123° |
| 2026-05-06 09:37 | 52.42094 | 10.01357 | 12180 ft | 313 kts | 123° |
| 2026-05-06 09:37 | 52.40947 | 10.04531 | 12536 ft | 333 kts | 123° |
| 2026-05-06 09:38 | 52.39775 | 10.07808 | 13116 ft | 342 kts | 123° |
| 2026-05-06 09:38 | 52.38565 | 10.11208 | 13795 ft | 348 kts | 123° |
| 2026-05-06 09:38 | 52.37344 | 10.14643 | 14435 ft | 351 kts | 123° |
| 2026-05-06 09:38 | 52.36109 | 10.18121 | 15086 ft | 354 kts | 123° |
| 2026-05-06 09:39 | 52.34862 | 10.21626 | 15773 ft | 357 kts | 123° |
| 2026-05-06 09:39 | 52.33609 | 10.25144 | 16487 ft | 361 kts | 122° |
| 2026-05-06 09:39 | 52.32337 | 10.28710 | 17276 ft | 365 kts | 123° |
| 2026-05-06 09:39 | 52.31048 | 10.32315 | 17970 ft | 370 kts | 123° |
| 2026-05-06 09:40 | 52.29742 | 10.35968 | 18570 ft | 374 kts | 123° |
| 2026-05-06 09:40 | 52.28423 | 10.39652 | 19199 ft | 376 kts | 123° |
| 2026-05-06 09:40 | 52.25777 | 10.47025 | 20374 ft | 382 kts | 123° |
| 2026-05-06 09:41 | 52.24427 | 10.50778 | 20999 ft | 385 kts | 123° |
| 2026-05-06 09:41 | 52.23061 | 10.54570 | 21625 ft | 387 kts | 123° |
| 2026-05-06 09:41 | 52.21694 | 10.58358 | 22242 ft | 389 kts | 123° |
| 2026-05-06 09:41 | 52.20319 | 10.62163 | 22839 ft | 391 kts | 123° |
| 2026-05-06 09:42 | 52.18935 | 10.65988 | 23416 ft | 393 kts | 123° |
| 2026-05-06 09:42 | 52.17542 | 10.69831 | 23722 ft | 396 kts | 123° |
| 2026-05-06 09:42 | 52.16136 | 10.73706 | 23889 ft | 398 kts | 123° |
| 2026-05-06 09:42 | 52.14658 | 10.77546 | 24359 ft | 398 kts | 127° |
| 2026-05-06 09:43 | 52.12928 | 10.81044 | 24870 ft | 396 kts | 135° |
| 2026-05-06 09:43 | 52.10897 | 10.84045 | 25309 ft | 395 kts | 143° |
| 2026-05-06 09:43 | 52.08613 | 10.86515 | 25675 ft | 396 kts | 150° |
| 2026-05-06 09:43 | 52.06205 | 10.88757 | 25961 ft | 400 kts | 152° |
| 2026-05-06 09:44 | 52.03746 | 10.90890 | 26259 ft | 401 kts | 153° |
| 2026-05-06 09:44 | 52.01291 | 10.92955 | 26505 ft | 403 kts | 153° |
| 2026-05-06 09:44 | 51.98802 | 10.95037 | 26908 ft | 402 kts | 153° |
| 2026-05-06 09:44 | 51.96326 | 10.97119 | 27298 ft | 400 kts | 153° |
| 2026-05-06 09:45 | 51.93859 | 10.99209 | 27701 ft | 399 kts | 152° |
| 2026-05-06 09:45 | 51.91411 | 11.01298 | 28130 ft | 397 kts | 152° |
| 2026-05-06 09:45 | 51.88963 | 11.03394 | 28583 ft | 396 kts | 152° |
| 2026-05-06 09:45 | 51.86532 | 11.05479 | 29026 ft | 394 kts | 152° |
| 2026-05-06 09:46 | 51.84112 | 11.07556 | 29466 ft | 393 kts | 151° |
| 2026-05-06 09:46 | 51.81699 | 11.09624 | 29903 ft | 391 kts | 151° |
| 2026-05-06 09:46 | 51.79299 | 11.11678 | 30255 ft | 390 kts | 152° |
| 2026-05-06 09:46 | 51.76901 | 11.13727 | 30577 ft | 391 kts | 152° |
| 2026-05-06 09:47 | 51.74497 | 11.15778 | 30759 ft | 390 kts | 153° |
| 2026-05-06 09:47 | 51.72089 | 11.17830 | 30780 ft | 393 kts | 153° |
| 2026-05-06 09:47 | 51.67232 | 11.21960 | 30781 ft | 395 kts | 154° |
| 2026-05-06 09:48 | 51.62352 | 11.26099 | 30775 ft | 396 kts | 154° |
| 2026-05-06 09:48 | 51.57497 | 11.30210 | 30775 ft | 396 kts | 154° |
| 2026-05-06 09:49 | 51.52609 | 11.34339 | 30774 ft | 397 kts | 154° |
| 2026-05-06 09:49 | 51.47753 | 11.38555 | 30769 ft | 399 kts | 152° |
| 2026-05-06 09:50 | 51.43522 | 11.44518 | 30771 ft | 414 kts | 133° |
| 2026-05-06 09:50 | 51.41936 | 11.48405 | 30770 ft | 421 kts | 122° |
| 2026-05-06 09:50 | 51.40842 | 11.52784 | 30771 ft | 427 kts | 110° |
| 2026-05-06 09:51 | 51.40314 | 11.57491 | 30754 ft | 433 kts | 97° |
| 2026-05-06 09:51 | 51.40269 | 11.62347 | 30770 ft | 438 kts | 92° |
| 2026-05-06 09:51 | 51.40554 | 11.72146 | 30768 ft | 442 kts | 89° |
| 2026-05-06 09:52 | 51.40946 | 11.81975 | 30773 ft | 442 kts | 89° |
| 2026-05-06 09:52 | 51.41292 | 11.91808 | 30774 ft | 442 kts | 90° |
| 2026-05-06 09:53 | 51.41591 | 12.01646 | 30771 ft | 442 kts | 90° |
| 2026-05-06 09:53 | 51.41870 | 12.11506 | 30792 ft | 446 kts | 90° |
| 2026-05-06 09:54 | 51.42141 | 12.21328 | 30771 ft | 435 kts | 90° |
| 2026-05-06 09:54 | 51.42401 | 12.30958 | 30773 ft | 431 kts | 90° |
| 2026-05-06 09:55 | 51.42649 | 12.40500 | 30774 ft | 431 kts | 90° |
| 2026-05-06 09:55 | 51.42685 | 12.50091 | 30773 ft | 428 kts | 99° |
| 2026-05-06 09:56 | 51.41130 | 12.59158 | 30767 ft | 422 kts | 121° |
| 2026-05-06 09:56 | 51.38235 | 12.67404 | 30774 ft | 425 kts | 127° |
| 2026-05-06 09:57 | 51.35082 | 12.75417 | 30772 ft | 425 kts | 128° |
| 2026-05-06 09:57 | 51.31892 | 12.83415 | 30768 ft | 428 kts | 129° |
| 2026-05-06 09:58 | 51.28724 | 12.91435 | 30771 ft | 429 kts | 128° |
| 2026-05-06 09:58 | 51.25545 | 12.99538 | 30774 ft | 430 kts | 128° |
| 2026-05-06 09:59 | 51.22363 | 13.07646 | 30777 ft | 431 kts | 128° |
| 2026-05-06 09:59 | 51.19175 | 13.15744 | 30774 ft | 432 kts | 128° |
| 2026-05-06 10:00 | 51.15972 | 13.23840 | 30775 ft | 431 kts | 129° |
| 2026-05-06 10:00 | 51.12763 | 13.31900 | 30775 ft | 431 kts | 129° |
| 2026-05-06 10:01 | 51.09546 | 13.39951 | 30769 ft | 431 kts | 129° |
| 2026-05-06 10:01 | 51.06350 | 13.47941 | 30774 ft | 430 kts | 129° |
| 2026-05-06 10:02 | 51.03054 | 13.55878 | 30776 ft | 426 kts | 135° |
| 2026-05-06 10:02 | 50.98840 | 13.62153 | 30773 ft | 408 kts | 153° |
| 2026-05-06 10:03 | 50.94041 | 13.66845 | 30774 ft | 404 kts | 157° |
| 2026-05-06 10:03 | 50.89833 | 13.71132 | 30778 ft | 412 kts | 148° |
| 2026-05-06 10:04 | 50.85772 | 13.77679 | 30779 ft | 421 kts | 138° |
| 2026-05-06 10:04 | 50.81999 | 13.84817 | 30774 ft | 423 kts | 136° |
| 2026-05-06 10:05 | 50.78792 | 13.92715 | 30773 ft | 431 kts | 126° |
| 2026-05-06 10:05 | 50.75890 | 14.00933 | 30717 ft | 429 kts | 126° |
| 2026-05-06 10:06 | 50.74458 | 14.05006 | 30186 ft | 422 kts | 126° |
| 2026-05-06 10:06 | 50.73024 | 14.09062 | 29230 ft | 424 kts | 125° |
| 2026-05-06 10:06 | 50.71578 | 14.13141 | 28207 ft | 426 kts | 125° |
| 2026-05-06 10:06 | 50.70121 | 14.17244 | 27084 ft | 430 kts | 125° |
| 2026-05-06 10:07 | 50.68649 | 14.21383 | 26164 ft | 433 kts | 124° |
| 2026-05-06 10:07 | 50.67178 | 14.25520 | 25435 ft | 431 kts | 124° |
| 2026-05-06 10:07 | 50.65713 | 14.29635 | 24771 ft | 429 kts | 124° |
| 2026-05-06 10:07 | 50.64260 | 14.33707 | 24093 ft | 426 kts | 124° |
| 2026-05-06 10:08 | 50.62747 | 14.37673 | 23419 ft | 418 kts | 130° |
| 2026-05-06 10:08 | 50.60782 | 14.40924 | 22676 ft | 403 kts | 147° |
| 2026-05-06 10:08 | 50.58374 | 14.42982 | 22041 ft | 387 kts | 166° |
| 2026-05-06 10:08 | 50.55780 | 14.43746 | 21421 ft | 373 kts | 182° |
| 2026-05-06 10:09 | 50.53279 | 14.43290 | 20849 ft | 362 kts | 198° |
| 2026-05-06 10:09 | 50.50995 | 14.41774 | 20283 ft | 355 kts | 211° |
| 2026-05-06 10:09 | 50.48911 | 14.39739 | 19706 ft | 350 kts | 215° |
| 2026-05-06 10:09 | 50.46891 | 14.37629 | 19118 ft | 347 kts | 215° |
| 2026-05-06 10:10 | 50.44840 | 14.35661 | 18553 ft | 345 kts | 208° |
| 2026-05-06 10:10 | 50.42564 | 14.34452 | 17935 ft | 346 kts | 193° |
| 2026-05-06 10:10 | 50.40162 | 14.34315 | 17311 ft | 347 kts | 180° |
| 2026-05-06 10:10 | 50.37765 | 14.34712 | 16743 ft | 346 kts | 176° |
| 2026-05-06 10:11 | 50.35387 | 14.35207 | 16157 ft | 343 kts | 176° |
| 2026-05-06 10:11 | 50.33028 | 14.35706 | 15555 ft | 341 kts | 176° |
| 2026-05-06 10:11 | 50.30680 | 14.36194 | 14946 ft | 338 kts | 176° |
| 2026-05-06 10:11 | 50.28354 | 14.36669 | 14392 ft | 336 kts | 175° |
| 2026-05-06 10:12 | 50.26048 | 14.37136 | 13810 ft | 333 kts | 175° |
| 2026-05-06 10:12 | 50.23754 | 14.37596 | 13200 ft | 331 kts | 175° |
| 2026-05-06 10:12 | 50.21507 | 14.38046 | 12620 ft | 328 kts | 176° |
| 2026-05-06 10:12 | 50.19253 | 14.38497 | 12055 ft | 325 kts | 176° |
| 2026-05-06 10:13 | 50.17018 | 14.38954 | 11483 ft | 323 kts | 174° |
| 2026-05-06 10:13 | 50.14850 | 14.39876 | 10913 ft | 326 kts | 160° |
| 2026-05-06 10:13 | 50.12952 | 14.41842 | 10318 ft | 332 kts | 140° |
| 2026-05-06 10:13 | 50.11452 | 14.44559 | 10005 ft | 322 kts | 131° |
| 2026-05-06 10:14 | 50.10150 | 14.47264 | 9945 ft | 302 kts | 131° |
| 2026-05-06 10:14 | 50.08925 | 14.49839 | 9833 ft | 292 kts | 131° |
| 2026-05-06 10:14 | 50.07697 | 14.52392 | 9360 ft | 295 kts | 131° |
| 2026-05-06 10:14 | 50.06484 | 14.54898 | 8860 ft | 293 kts | 131° |
| 2026-05-06 10:15 | 50.05263 | 14.57411 | 8431 ft | 290 kts | 131° |
| 2026-05-06 10:15 | 50.04046 | 14.59909 | 8007 ft | 289 kts | 131° |
| 2026-05-06 10:15 | 50.02835 | 14.62391 | 7579 ft | 287 kts | 131° |
| 2026-05-06 10:15 | 50.01419 | 14.64497 | 7162 ft | 278 kts | 153° |
| 2026-05-06 10:16 | 49.99633 | 14.65394 | 6698 ft | 268 kts | 180° |
| 2026-05-06 10:16 | 49.97849 | 14.64888 | 6266 ft | 257 kts | 208° |
| 2026-05-06 10:16 | 49.96537 | 14.63178 | 5958 ft | 241 kts | 237° |
| 2026-05-06 10:16 | 49.95928 | 14.60824 | 5826 ft | 233 kts | 254° |
| 2026-05-06 10:17 | 49.95676 | 14.58404 | 5572 ft | 226 kts | 266° |
| 2026-05-06 10:17 | 49.95856 | 14.55972 | 5116 ft | 233 kts | 290° |
| 2026-05-06 10:17 | 49.96739 | 14.53827 | 4758 ft | 236 kts | 302° |
| 2026-05-06 10:17 | 49.97745 | 14.51846 | 4307 ft | 236 kts | 308° |
| 2026-05-06 10:18 | 49.98887 | 14.50010 | 4010 ft | 237 kts | 311° |
| 2026-05-06 10:18 | 50.00032 | 14.48185 | 3952 ft | 232 kts | 309° |
| 2026-05-06 10:18 | 50.01084 | 14.46352 | 3866 ft | 221 kts | 307° |
| 2026-05-06 10:18 | 50.02025 | 14.44504 | 3707 ft | 215 kts | 303° |
| 2026-05-06 10:19 | 50.02835 | 14.42709 | 3555 ft | 192 kts | 300° |
| 2026-05-06 10:19 | 50.03530 | 14.41076 | 3405 ft | 171 kts | 299° |
| 2026-05-06 10:19 | 50.03952 | 14.40072 | 3206 ft | 163 kts | 298° |
| 2026-05-06 10:19 | 50.04757 | 14.38138 | 2787 ft | 159 kts | 298° |
| 2026-05-06 10:20 | 50.05359 | 14.36691 | 2467 ft | 158 kts | 297° |
| 2026-05-06 10:20 | 50.05764 | 14.35721 | 2299 ft | 158 kts | 298° |
| 2026-05-06 10:20 | 50.06329 | 14.34328 | 2042 ft | 151 kts | 295° |
| 2026-05-06 10:20 | 50.06875 | 14.32919 | 1874 ft | 152 kts | 296° |
| 2026-05-06 10:21 | 50.07441 | 14.31513 | 1704 ft | 155 kts | 301° |
| 2026-05-06 10:21 | 50.08076 | 14.30171 | 1520 ft | 153 kts | 303° |
| 2026-05-06 10:21 | 50.08716 | 14.28861 | 1360 ft | 151 kts | 299° |
| 2026-05-06 10:21 | 50.09335 | 14.27569 | 1247 ft | 140 kts | 300° |
| 2026-05-06 10:22 | 50.09798 | 14.26613 | 1216 ft | 82 kts | 304° |
| 2026-05-06 10:22 | 50.10063 | 14.26067 | 1196 ft | 51 kts | 307° |
| 2026-05-06 10:22 | 50.10243 | 14.25735 | 1195 ft | 32 kts | 323° |
| 2026-05-06 10:22 | 50.10417 | 14.25659 | 1193 ft | 23 kts | 4° |
| 2026-05-06 10:23 | 50.10563 | 14.25744 | 1192 ft | 19 kts | 33° |
| 2026-05-06 10:23 | 50.10674 | 14.25859 | 1190 ft | 17 kts | 33° |
| 2026-05-06 10:23 | 50.10740 | 14.25884 | 1187 ft | 8 kts | 307° |
| 2026-05-06 10:23 | 50.10762 | 14.25829 | 1185 ft | 2 kts | 303° |
| 2026-05-06 10:24 | 50.10764 | 14.25823 | 1185 ft | 0 kts | 302° |